sensor_id;sensor_type;location;lat;lon;timestamp;pressure;altitude;pressure_sealevel;temperature;humidity
28630;BME280;15817;42.130;24.762;2023-08-06T00:01:01;98431.59;;;28.33;77.53
28630;BME280;15817;42.130;24.762;2023-08-06T00:03:29;98432.06;;;28.29;77.61
28630;BME280;15817;42.130;24.762;2023-08-06T00:05:55;98437.94;;;28.34;77.60
28630;BME280;15817;42.130;24.762;2023-08-06T00:08:20;98436.75;;;28.36;77.12
28630;BME280;15817;42.130;24.762;2023-08-06T00:10:47;98423.09;;;28.36;77.22
28630;BME280;15817;42.130;24.762;2023-08-06T00:13:13;98419.88;;;28.41;77.34
28630;BME280;15817;42.130;24.762;2023-08-06T00:15:39;98407.13;;;28.32;77.43
28630;BME280;15817;42.130;24.762;2023-08-06T00:18:05;98411.13;;;28.37;77.04
28630;BME280;15817;42.130;24.762;2023-08-06T00:20:31;98416.41;;;28.39;76.83
28630;BME280;15817;42.130;24.762;2023-08-06T00:22:56;98401.50;;;28.33;77.06
28630;BME280;15817;42.130;24.762;2023-08-06T00:25:22;98407.69;;;28.35;77.05
28630;BME280;15817;42.130;24.762;2023-08-06T00:27:48;98409.31;;;28.28;77.57
28630;BME280;15817;42.130;24.762;2023-08-06T00:30:14;98406.50;;;28.20;78.23
28630;BME280;15817;42.130;24.762;2023-08-06T00:32:39;98414.72;;;28.20;77.82
28630;BME280;15817;42.130;24.762;2023-08-06T00:35:06;98421.25;;;28.09;78.84
28630;BME280;15817;42.130;24.762;2023-08-06T00:37:31;98428.16;;;28.04;79.52
28630;BME280;15817;42.130;24.762;2023-08-06T00:39:58;98423.91;;;28.01;79.71
28630;BME280;15817;42.130;24.762;2023-08-06T00:42:25;98411.38;;;27.99;80.13
28630;BME280;15817;42.130;24.762;2023-08-06T00:44:51;98421.38;;;28.08;79.49
28630;BME280;15817;42.130;24.762;2023-08-06T00:47:16;98403.97;;;28.09;79.34
28630;BME280;15817;42.130;24.762;2023-08-06T00:49:44;98404.53;;;28.13;79.48
28630;BME280;15817;42.130;24.762;2023-08-06T00:52:10;98404.84;;;28.09;79.80
28630;BME280;15817;42.130;24.762;2023-08-06T00:54:36;98408.28;;;28.11;80.12
28630;BME280;15817;42.130;24.762;2023-08-06T00:57:05;98390.69;;;27.96;80.30
28630;BME280;15817;42.130;24.762;2023-08-06T00:59:32;98391.84;;;27.94;80.91
28630;BME280;15817;42.130;24.762;2023-08-06T01:01:58;98379.03;;;27.94;80.78
28630;BME280;15817;42.130;24.762;2023-08-06T01:04:24;98369.81;;;27.95;80.97
28630;BME280;15817;42.130;24.762;2023-08-06T01:07:09;98377.50;;;27.92;80.77
28630;BME280;15817;42.130;24.762;2023-08-06T01:09:48;98378.09;;;27.68;82.98
28630;BME280;15817;42.130;24.762;2023-08-06T01:12:48;98372.50;;;27.60;82.98
28630;BME280;15817;42.130;24.762;2023-08-06T01:15:24;98370.97;;;27.48;83.93
28630;BME280;15817;42.130;24.762;2023-08-06T01:17:53;98380.28;;;27.55;83.87
28630;BME280;15817;42.130;24.762;2023-08-06T01:20:19;98382.38;;;27.43;84.80
28630;BME280;15817;42.130;24.762;2023-08-06T01:22:44;98379.00;;;27.49;84.63
28630;BME280;15817;42.130;24.762;2023-08-06T01:25:12;98377.63;;;27.35;85.28
28630;BME280;15817;42.130;24.762;2023-08-06T01:27:47;98403.06;;;27.36;86.15
28630;BME280;15817;42.130;24.762;2023-08-06T01:30:30;98395.22;;;27.33;86.19
28630;BME280;15817;42.130;24.762;2023-08-06T01:33:04;98400.66;;;27.33;86.40
28630;BME280;15817;42.130;24.762;2023-08-06T01:35:30;98390.94;;;27.21;87.60
28630;BME280;15817;42.130;24.762;2023-08-06T01:37:59;98374.25;;;27.24;87.01
28630;BME280;15817;42.130;24.762;2023-08-06T01:40:26;98376.28;;;27.22;87.70
28630;BME280;15817;42.130;24.762;2023-08-06T01:42:53;98366.03;;;27.33;86.46
28630;BME280;15817;42.130;24.762;2023-08-06T01:45:19;98354.91;;;27.45;85.75
28630;BME280;15817;42.130;24.762;2023-08-06T01:47:45;98349.53;;;27.53;85.25
28630;BME280;15817;42.130;24.762;2023-08-06T01:50:11;98350.97;;;27.47;85.80
28630;BME280;15817;42.130;24.762;2023-08-06T01:52:36;98353.34;;;27.42;85.86
28630;BME280;15817;42.130;24.762;2023-08-06T01:55:02;98356.31;;;27.21;87.73
28630;BME280;15817;42.130;24.762;2023-08-06T01:57:28;98362.66;;;27.12;88.30
28630;BME280;15817;42.130;24.762;2023-08-06T01:59:54;98369.41;;;27.18;87.91
28630;BME280;15817;42.130;24.762;2023-08-06T02:02:19;98366.06;;;27.24;87.72
28630;BME280;15817;42.130;24.762;2023-08-06T02:04:46;98389.22;;;27.20;88.02
28630;BME280;15817;42.130;24.762;2023-08-06T02:07:12;98408.47;;;27.18;88.28
28630;BME280;15817;42.130;24.762;2023-08-06T02:09:38;98390.09;;;27.20;87.94
28630;BME280;15817;42.130;24.762;2023-08-06T02:12:04;98362.31;;;27.25;86.91
28630;BME280;15817;42.130;24.762;2023-08-06T02:14:30;98372.03;;;27.37;86.28
28630;BME280;15817;42.130;24.762;2023-08-06T02:16:55;98379.03;;;27.22;87.42
28630;BME280;15817;42.130;24.762;2023-08-06T02:19:23;98365.66;;;27.19;87.50
28630;BME280;15817;42.130;24.762;2023-08-06T02:21:49;98369.69;;;27.15;87.23
28630;BME280;15817;42.130;24.762;2023-08-06T02:24:15;98372.34;;;26.97;88.61
28630;BME280;15817;42.130;24.762;2023-08-06T02:26:41;98366.56;;;27.10;87.87
28630;BME280;15817;42.130;24.762;2023-08-06T02:29:06;98368.53;;;27.17;87.27
28630;BME280;15817;42.130;24.762;2023-08-06T02:31:32;98372.56;;;27.23;86.92
28630;BME280;15817;42.130;24.762;2023-08-06T02:33:58;98357.09;;;27.04;87.84
28630;BME280;15817;42.130;24.762;2023-08-06T02:36:24;98363.44;;;26.95;88.19
28630;BME280;15817;42.130;24.762;2023-08-06T02:38:50;98370.63;;;26.96;89.02
28630;BME280;15817;42.130;24.762;2023-08-06T02:41:16;98361.44;;;26.97;88.57
28630;BME280;15817;42.130;24.762;2023-08-06T02:43:41;98357.09;;;27.04;88.27
28630;BME280;15817;42.130;24.762;2023-08-06T02:46:07;98354.22;;;27.06;87.92
28630;BME280;15817;42.130;24.762;2023-08-06T02:48:33;98360.41;;;27.08;88.00
28630;BME280;15817;42.130;24.762;2023-08-06T02:50:59;98366.16;;;27.04;87.78
28630;BME280;15817;42.130;24.762;2023-08-06T02:53:26;98365.03;;;26.97;88.86
28630;BME280;15817;42.130;24.762;2023-08-06T02:55:52;98358.38;;;27.00;88.44
28630;BME280;15817;42.130;24.762;2023-08-06T02:58:24;98353.78;;;27.10;87.83
28630;BME280;15817;42.130;24.762;2023-08-06T03:01:06;98352.31;;;27.16;87.52
28630;BME280;15817;42.130;24.762;2023-08-06T03:03:42;98349.00;;;27.12;87.66
28630;BME280;15817;42.130;24.762;2023-08-06T03:06:08;98349.19;;;27.01;88.24
28630;BME280;15817;42.130;24.762;2023-08-06T03:08:43;98348.50;;;26.99;88.48
28630;BME280;15817;42.130;24.762;2023-08-06T03:11:09;98356.09;;;27.05;88.37
28630;BME280;15817;42.130;24.762;2023-08-06T03:13:35;98351.91;;;27.11;87.84
28630;BME280;15817;42.130;24.762;2023-08-06T03:16:01;98359.25;;;27.10;87.98
28630;BME280;15817;42.130;24.762;2023-08-06T03:18:29;98358.97;;;27.03;88.56
28630;BME280;15817;42.130;24.762;2023-08-06T03:20:57;98354.66;;;27.01;88.47
28630;BME280;15817;42.130;24.762;2023-08-06T03:23:25;98339.47;;;26.98;88.69
28630;BME280;15817;42.130;24.762;2023-08-06T03:25:53;98349.66;;;26.96;88.94
28630;BME280;15817;42.130;24.762;2023-08-06T03:28:19;98347.09;;;26.95;89.06
28630;BME280;15817;42.130;24.762;2023-08-06T03:30:58;98357.56;;;26.99;88.64
28630;BME280;15817;42.130;24.762;2023-08-06T03:33:25;98367.63;;;26.99;89.00
28630;BME280;15817;42.130;24.762;2023-08-06T03:35:50;98366.34;;;26.84;89.63
28630;BME280;15817;42.130;24.762;2023-08-06T03:38:17;98365.19;;;26.86;89.65
28630;BME280;15817;42.130;24.762;2023-08-06T03:40:43;98365.47;;;26.83;89.66
28630;BME280;15817;42.130;24.762;2023-08-06T03:43:09;98360.16;;;26.82;89.64
28630;BME280;15817;42.130;24.762;2023-08-06T03:45:35;98366.72;;;26.89;89.42
28630;BME280;15817;42.130;24.762;2023-08-06T03:48:01;98359.56;;;26.88;89.41
28630;BME280;15817;42.130;24.762;2023-08-06T03:50:27;98362.31;;;26.88;89.68
28630;BME280;15817;42.130;24.762;2023-08-06T03:52:53;98362.59;;;26.85;89.69
28630;BME280;15817;42.130;24.762;2023-08-06T03:55:21;98363.31;;;26.87;89.26
28630;BME280;15817;42.130;24.762;2023-08-06T03:57:47;98348.81;;;26.86;89.32
28630;BME280;15817;42.130;24.762;2023-08-06T04:00:13;98366.72;;;26.89;89.78
28630;BME280;15817;42.130;24.762;2023-08-06T04:02:42;98370.63;;;26.86;89.80
28630;BME280;15817;42.130;24.762;2023-08-06T04:05:09;98378.81;;;26.86;90.10
28630;BME280;15817;42.130;24.762;2023-08-06T04:07:35;98369.06;;;26.84;89.68
28630;BME280;15817;42.130;24.762;2023-08-06T04:10:03;98379.97;;;26.84;90.10
28630;BME280;15817;42.130;24.762;2023-08-06T04:12:30;98379.00;;;26.75;91.21
28630;BME280;15817;42.130;24.762;2023-08-06T04:14:57;98376.28;;;26.75;90.78
28630;BME280;15817;42.130;24.762;2023-08-06T04:17:23;98375.41;;;26.75;90.68
28630;BME280;15817;42.130;24.762;2023-08-06T04:19:53;98381.41;;;26.78;90.57
28630;BME280;15817;42.130;24.762;2023-08-06T04:22:20;98370.81;;;26.75;90.92
28630;BME280;15817;42.130;24.762;2023-08-06T04:24:46;98372.81;;;26.73;90.73
28630;BME280;15817;42.130;24.762;2023-08-06T04:27:13;98389.75;;;26.77;90.49
28630;BME280;15817;42.130;24.762;2023-08-06T04:29:40;98387.19;;;26.75;90.86
28630;BME280;15817;42.130;24.762;2023-08-06T04:32:08;98388.47;;;26.71;91.67
28630;BME280;15817;42.130;24.762;2023-08-06T04:34:36;98388.75;;;26.68;91.98
28630;BME280;15817;42.130;24.762;2023-08-06T04:37:03;98389.19;;;26.54;92.80
28630;BME280;15817;42.130;24.762;2023-08-06T04:39:29;98400.28;;;26.52;93.75
28630;BME280;15817;42.130;24.762;2023-08-06T04:41:56;98383.22;;;26.41;94.35
28630;BME280;15817;42.130;24.762;2023-08-06T04:44:26;98372.16;;;26.42;94.78
28630;BME280;15817;42.130;24.762;2023-08-06T04:46:51;98370.44;;;26.51;94.00
28630;BME280;15817;42.130;24.762;2023-08-06T04:49:18;98364.66;;;26.63;93.17
28630;BME280;15817;42.130;24.762;2023-08-06T04:51:55;98388.75;;;26.68;93.26
28630;BME280;15817;42.130;24.762;2023-08-06T04:54:20;98382.75;;;26.64;93.03
28630;BME280;15817;42.130;24.762;2023-08-06T04:56:46;98366.22;;;26.66;92.71
28630;BME280;15817;42.130;24.762;2023-08-06T04:59:12;98376.25;;;26.65;92.81
28630;BME280;15817;42.130;24.762;2023-08-06T05:01:38;98379.88;;;26.56;93.73
28630;BME280;15817;42.130;24.762;2023-08-06T05:04:03;98396.13;;;26.48;94.40
28630;BME280;15817;42.130;24.762;2023-08-06T05:06:29;98395.84;;;26.51;94.27
28630;BME280;15817;42.130;24.762;2023-08-06T05:08:55;98392.38;;;26.59;94.16
28630;BME280;15817;42.130;24.762;2023-08-06T05:11:21;98380.19;;;26.53;93.90
28630;BME280;15817;42.130;24.762;2023-08-06T05:13:46;98389.53;;;26.51;94.16
28630;BME280;15817;42.130;24.762;2023-08-06T05:16:15;98380.34;;;26.52;94.32
28630;BME280;15817;42.130;24.762;2023-08-06T05:18:41;98376.75;;;26.51;94.56
28630;BME280;15817;42.130;24.762;2023-08-06T05:21:07;98369.44;;;26.52;94.55
28630;BME280;15817;42.130;24.762;2023-08-06T05:23:33;98390.81;;;26.47;94.64
28630;BME280;15817;42.130;24.762;2023-08-06T05:26:01;98399.44;;;26.42;94.79
28630;BME280;15817;42.130;24.762;2023-08-06T05:28:30;98407.44;;;26.44;94.73
28630;BME280;15817;42.130;24.762;2023-08-06T05:30:56;98388.81;;;26.29;95.59
28630;BME280;15817;42.130;24.762;2023-08-06T05:33:25;98382.19;;;26.32;94.11
28630;BME280;15817;42.130;24.762;2023-08-06T05:35:51;98375.31;;;26.38;91.28
28630;BME280;15817;42.130;24.762;2023-08-06T05:38:16;98374.31;;;26.39;93.13
28630;BME280;15817;42.130;24.762;2023-08-06T05:40:43;98379.78;;;26.39;95.81
28630;BME280;15817;42.130;24.762;2023-08-06T05:43:12;98374.03;;;26.32;96.35
28630;BME280;15817;42.130;24.762;2023-08-06T05:45:37;98373.00;;;26.33;93.89
28630;BME280;15817;42.130;24.762;2023-08-06T05:48:06;98368.00;;;26.19;92.14
28630;BME280;15817;42.130;24.762;2023-08-06T05:50:32;98360.97;;;26.16;91.44
28630;BME280;15817;42.130;24.762;2023-08-06T05:53:01;98354.78;;;26.05;90.50
28630;BME280;15817;42.130;24.762;2023-08-06T05:55:29;98367.41;;;26.06;91.38
28630;BME280;15817;42.130;24.762;2023-08-06T05:57:55;98350.47;;;26.02;90.16
28630;BME280;15817;42.130;24.762;2023-08-06T06:00:21;98359.78;;;26.00;91.22
28630;BME280;15817;42.130;24.762;2023-08-06T06:02:47;98380.72;;;25.89;93.09
28630;BME280;15817;42.130;24.762;2023-08-06T06:05:16;98380.44;;;25.83;93.79
28630;BME280;15817;42.130;24.762;2023-08-06T06:07:42;98379.72;;;25.81;96.35
28630;BME280;15817;42.130;24.762;2023-08-06T06:10:10;98357.34;;;25.77;96.05
28630;BME280;15817;42.130;24.762;2023-08-06T06:12:38;98362.66;;;25.79;96.82
28630;BME280;15817;42.130;24.762;2023-08-06T06:15:05;98363.94;;;25.75;97.85
28630;BME280;15817;42.130;24.762;2023-08-06T06:17:31;98349.31;;;25.66;100.00
28630;BME280;15817;42.130;24.762;2023-08-06T06:19:56;98350.44;;;25.64;100.00
28630;BME280;15817;42.130;24.762;2023-08-06T06:22:22;98365.47;;;25.58;100.00
28630;BME280;15817;42.130;24.762;2023-08-06T06:24:48;98376.53;;;25.66;100.00
28630;BME280;15817;42.130;24.762;2023-08-06T06:27:14;98372.63;;;25.59;100.00
28630;BME280;15817;42.130;24.762;2023-08-06T06:29:42;98362.56;;;25.50;100.00
28630;BME280;15817;42.130;24.762;2023-08-06T06:32:08;98360.41;;;25.44;100.00
28630;BME280;15817;42.130;24.762;2023-08-06T06:34:34;98368.31;;;25.47;100.00
28630;BME280;15817;42.130;24.762;2023-08-06T06:37:00;98384.19;;;25.42;100.00
28630;BME280;15817;42.130;24.762;2023-08-06T06:39:26;98396.38;;;25.47;100.00
28630;BME280;15817;42.130;24.762;2023-08-06T06:41:51;98387.34;;;25.47;100.00
28630;BME280;15817;42.130;24.762;2023-08-06T06:44:24;98370.44;;;25.43;100.00
28630;BME280;15817;42.130;24.762;2023-08-06T06:46:50;98379.31;;;25.45;100.00
28630;BME280;15817;42.130;24.762;2023-08-06T06:49:15;98370.44;;;25.43;100.00
28630;BME280;15817;42.130;24.762;2023-08-06T06:51:41;98371.03;;;25.47;100.00
28630;BME280;15817;42.130;24.762;2023-08-06T06:54:07;98361.41;;;25.43;100.00
28630;BME280;15817;42.130;24.762;2023-08-06T06:56:33;98373.00;;;25.45;100.00
28630;BME280;15817;42.130;24.762;2023-08-06T06:58:58;98363.84;;;25.46;100.00
28630;BME280;15817;42.130;24.762;2023-08-06T07:01:24;98378.06;;;25.49;100.00
28630;BME280;15817;42.130;24.762;2023-08-06T07:03:50;98379.91;;;25.49;100.00
28630;BME280;15817;42.130;24.762;2023-08-06T07:06:15;98378.19;;;25.48;100.00
28630;BME280;15817;42.130;24.762;2023-08-06T07:08:44;98396.53;;;25.55;100.00
28630;BME280;15817;42.130;24.762;2023-08-06T07:11:14;98404.44;;;25.58;100.00
28630;BME280;15817;42.130;24.762;2023-08-06T07:13:40;98394.81;;;25.54;100.00
28630;BME280;15817;42.130;24.762;2023-08-06T07:16:06;98413.38;;;25.60;100.00
28630;BME280;15817;42.130;24.762;2023-08-06T07:18:32;98410.66;;;25.70;100.00
28630;BME280;15817;42.130;24.762;2023-08-06T07:20:57;98411.66;;;25.69;100.00
28630;BME280;15817;42.130;24.762;2023-08-06T07:23:25;98406.06;;;25.61;100.00
28630;BME280;15817;42.130;24.762;2023-08-06T07:25:51;98424.16;;;25.81;100.00
28630;BME280;15817;42.130;24.762;2023-08-06T07:28:17;98420.59;;;25.81;100.00
28630;BME280;15817;42.130;24.762;2023-08-06T07:30:44;98432.47;;;25.70;100.00
28630;BME280;15817;42.130;24.762;2023-08-06T07:33:11;98446.63;;;25.74;100.00
28630;BME280;15817;42.130;24.762;2023-08-06T07:35:37;98432.63;;;25.78;100.00
28630;BME280;15817;42.130;24.762;2023-08-06T07:38:06;98415.81;;;25.73;100.00
28630;BME280;15817;42.130;24.762;2023-08-06T07:40:36;98400.19;;;25.75;100.00
28630;BME280;15817;42.130;24.762;2023-08-06T07:43:03;98399.78;;;25.80;100.00
28630;BME280;15817;42.130;24.762;2023-08-06T07:45:33;98409.56;;;26.02;100.00
28630;BME280;15817;42.130;24.762;2023-08-06T07:47:59;98409.56;;;26.02;100.00
28630;BME280;15817;42.130;24.762;2023-08-06T07:50:25;98412.44;;;26.00;100.00
28630;BME280;15817;42.130;24.762;2023-08-06T07:52:53;98417.47;;;25.95;100.00
28630;BME280;15817;42.130;24.762;2023-08-06T07:55:19;98406.97;;;25.81;100.00
28630;BME280;15817;42.130;24.762;2023-08-06T07:57:47;98408.38;;;25.75;100.00
28630;BME280;15817;42.130;24.762;2023-08-06T08:00:13;98419.84;;;25.79;100.00
28630;BME280;15817;42.130;24.762;2023-08-06T08:02:40;98423.84;;;25.75;100.00
28630;BME280;15817;42.130;24.762;2023-08-06T08:05:06;98440.91;;;25.67;100.00
28630;BME280;15817;42.130;24.762;2023-08-06T08:07:33;98435.25;;;25.59;100.00
28630;BME280;15817;42.130;24.762;2023-08-06T08:09:59;98436.22;;;25.48;100.00
28630;BME280;15817;42.130;24.762;2023-08-06T08:12:25;98434.63;;;25.46;100.00
28630;BME280;15817;42.130;24.762;2023-08-06T08:14:50;98435.16;;;25.40;100.00
28630;BME280;15817;42.130;24.762;2023-08-06T08:17:16;98443.06;;;25.43;100.00
28630;BME280;15817;42.130;24.762;2023-08-06T08:19:42;98442.06;;;25.44;100.00
28630;BME280;15817;42.130;24.762;2023-08-06T08:22:08;98434.50;;;25.47;100.00
28630;BME280;15817;42.130;24.762;2023-08-06T08:24:34;98430.88;;;25.37;100.00
28630;BME280;15817;42.130;24.762;2023-08-06T08:27:03;98438.06;;;25.38;100.00
28630;BME280;15817;42.130;24.762;2023-08-06T08:29:28;98438.75;;;25.40;100.00
28630;BME280;15817;42.130;24.762;2023-08-06T08:31:54;98435.03;;;25.41;100.00
28630;BME280;15817;42.130;24.762;2023-08-06T08:34:20;98434.03;;;25.42;100.00
28630;BME280;15817;42.130;24.762;2023-08-06T08:36:46;98416.81;;;25.32;100.00
28630;BME280;15817;42.130;24.762;2023-08-06T08:39:13;98417.97;;;25.39;100.00
28630;BME280;15817;42.130;24.762;2023-08-06T08:41:39;98413.25;;;25.41;100.00
28630;BME280;15817;42.130;24.762;2023-08-06T08:44:10;98422.88;;;25.45;100.00
28630;BME280;15817;42.130;24.762;2023-08-06T08:46:40;98415.84;;;25.43;100.00
28630;BME280;15817;42.130;24.762;2023-08-06T08:49:07;98426.59;;;25.44;100.00
28630;BME280;15817;42.130;24.762;2023-08-06T08:51:34;98431.06;;;25.45;100.00
28630;BME280;15817;42.130;24.762;2023-08-06T08:54:03;98426.59;;;25.44;100.00
28630;BME280;15817;42.130;24.762;2023-08-06T08:56:30;98427.47;;;25.45;100.00
28630;BME280;15817;42.130;24.762;2023-08-06T08:58:57;98421.44;;;25.41;100.00
28630;BME280;15817;42.130;24.762;2023-08-06T09:01:22;98423.19;;;25.52;100.00
28630;BME280;15817;42.130;24.762;2023-08-06T09:03:49;98419.97;;;25.68;100.00
28630;BME280;15817;42.130;24.762;2023-08-06T09:06:19;98412.03;;;26.05;100.00
28630;BME280;15817;42.130;24.762;2023-08-06T09:09:09;98397.69;;;26.51;99.77
28630;BME280;15817;42.130;24.762;2023-08-06T09:11:42;98386.16;;;26.86;96.21
28630;BME280;15817;42.130;24.762;2023-08-06T09:14:09;98380.75;;;27.23;96.70
28630;BME280;15817;42.130;24.762;2023-08-06T09:16:36;98378.50;;;27.09;95.80
28630;BME280;15817;42.130;24.762;2023-08-06T09:19:09;98379.84;;;27.32;89.48
28630;BME280;15817;42.130;24.762;2023-08-06T09:21:39;98375.34;;;27.68;87.08
28630;BME280;15817;42.130;24.762;2023-08-06T09:24:09;98376.25;;;27.59;88.05
28630;BME280;15817;42.130;24.762;2023-08-06T09:26:43;98376.28;;;27.49;88.15
28630;BME280;15817;42.130;24.762;2023-08-06T09:29:10;98375.56;;;28.02;83.94
28630;BME280;15817;42.130;24.762;2023-08-06T09:31:43;98373.25;;;28.25;79.85
28630;BME280;15817;42.130;24.762;2023-08-06T09:36:47;98374.66;;;28.72;78.95
28630;BME280;15817;42.130;24.762;2023-08-06T09:39:14;98372.00;;;28.80;77.43
28630;BME280;15817;42.130;24.762;2023-08-06T09:41:41;98380.41;;;28.43;75.92
28630;BME280;15817;42.130;24.762;2023-08-06T09:44:20;98381.66;;;28.75;77.14
28630;BME280;15817;42.130;24.762;2023-08-06T09:46:51;98364.19;;;28.50;73.84
28630;BME280;15817;42.130;24.762;2023-08-06T09:49:48;98356.78;;;28.07;73.80
28630;BME280;15817;42.130;24.762;2023-08-06T09:52:13;98358.81;;;27.87;75.95
28630;BME280;15817;42.130;24.762;2023-08-06T09:54:43;98366.53;;;27.74;75.01
28630;BME280;15817;42.130;24.762;2023-08-06T09:57:09;98346.50;;;28.19;71.57
28630;BME280;15817;42.130;24.762;2023-08-06T10:00:39;98368.59;;;28.87;67.57
28630;BME280;15817;42.130;24.762;2023-08-06T10:03:01;98362.19;;;29.30;63.38
28630;BME280;15817;42.130;24.762;2023-08-06T10:05:27;98346.84;;;29.45;63.27
28630;BME280;15817;42.130;24.762;2023-08-06T10:07:53;98336.69;;;29.71;62.80
28630;BME280;15817;42.130;24.762;2023-08-06T10:10:19;98345.81;;;29.88;59.96
28630;BME280;15817;42.130;24.762;2023-08-06T10:12:54;98342.59;;;30.01;59.86
28630;BME280;15817;42.130;24.762;2023-08-06T10:15:25;98330.78;;;30.16;58.65
28630;BME280;15817;42.130;24.762;2023-08-06T10:17:54;98329.94;;;30.32;59.50
28630;BME280;15817;42.130;24.762;2023-08-06T10:20:21;98322.88;;;30.38;57.00
28630;BME280;15817;42.130;24.762;2023-08-06T10:23:04;98311.06;;;30.45;56.73
28630;BME280;15817;42.130;24.762;2023-08-06T10:25:32;98314.66;;;30.70;57.48
28630;BME280;15817;42.130;24.762;2023-08-06T10:27:59;98325.84;;;30.69;54.26
28630;BME280;15817;42.130;24.762;2023-08-06T10:30:32;98323.75;;;30.63;57.07
28630;BME280;15817;42.130;24.762;2023-08-06T10:33:00;98329.03;;;30.88;53.01
28630;BME280;15817;42.130;24.762;2023-08-06T10:35:41;98320.47;;;30.91;53.82
28630;BME280;15817;42.130;24.762;2023-08-06T10:38:18;98304.09;;;31.06;54.64
28630;BME280;15817;42.130;24.762;2023-08-06T10:41:01;98323.81;;;31.26;54.66
28630;BME280;15817;42.130;24.762;2023-08-06T10:43:37;98330.22;;;30.94;52.77
28630;BME280;15817;42.130;24.762;2023-08-06T10:46:21;98322.84;;;31.03;53.94
28630;BME280;15817;42.130;24.762;2023-08-06T10:48:47;98319.47;;;31.31;50.58
28630;BME280;15817;42.130;24.762;2023-08-06T10:51:16;98317.25;;;31.27;48.04
28630;BME280;15817;42.130;24.762;2023-08-06T10:53:44;98329.00;;;31.52;49.07
28630;BME280;15817;42.130;24.762;2023-08-06T10:56:19;98327.75;;;31.62;48.35
28630;BME280;15817;42.130;24.762;2023-08-06T10:58:46;98346.41;;;31.83;47.07
28630;BME280;15817;42.130;24.762;2023-08-06T11:01:12;98350.75;;;32.00;46.82
28630;BME280;15817;42.130;24.762;2023-08-06T11:03:39;98341.56;;;32.08;45.76
28630;BME280;15817;42.130;24.762;2023-08-06T11:06:09;98337.88;;;31.70;46.99
28630;BME280;15817;42.130;24.762;2023-08-06T11:08:37;98332.59;;;31.60;47.55
28630;BME280;15817;42.130;24.762;2023-08-06T11:11:10;98326.38;;;31.66;46.66
28630;BME280;15817;42.130;24.762;2023-08-06T11:13:43;98332.16;;;31.80;46.70
28630;BME280;15817;42.130;24.762;2023-08-06T11:16:33;98332.91;;;31.65;46.65
28630;BME280;15817;42.130;24.762;2023-08-06T11:22:06;98339.59;;;31.63;44.94
28630;BME280;15817;42.130;24.762;2023-08-06T11:24:32;98341.84;;;31.67;44.52
28630;BME280;15817;42.130;24.762;2023-08-06T11:26:58;98340.47;;;31.72;43.50
28630;BME280;15817;42.130;24.762;2023-08-06T11:29:24;98345.84;;;31.88;43.61
28630;BME280;15817;42.130;24.762;2023-08-06T11:31:52;98339.66;;;31.86;42.98
28630;BME280;15817;42.130;24.762;2023-08-06T11:34:18;98340.84;;;31.91;43.98
28630;BME280;15817;42.130;24.762;2023-08-06T11:36:43;98343.38;;;31.70;44.10
28630;BME280;15817;42.130;24.762;2023-08-06T11:39:12;98339.53;;;31.79;43.88
28630;BME280;15817;42.130;24.762;2023-08-06T11:41:40;98336.06;;;31.85;43.85
28630;BME280;15817;42.130;24.762;2023-08-06T11:44:11;98344.47;;;31.92;43.75
28630;BME280;15817;42.130;24.762;2023-08-06T11:46:50;98340.09;;;31.36;45.01
28630;BME280;15817;42.130;24.762;2023-08-06T11:49:18;98336.41;;;31.12;45.71
28630;BME280;15817;42.130;24.762;2023-08-06T11:51:47;98338.34;;;30.79;46.15
28630;BME280;15817;42.130;24.762;2023-08-06T11:54:13;98340.22;;;30.63;46.34
28630;BME280;15817;42.130;24.762;2023-08-06T11:56:39;98336.78;;;30.36;46.56
28630;BME280;15817;42.130;24.762;2023-08-06T11:59:05;98334.91;;;30.69;46.36
28630;BME280;15817;42.130;24.762;2023-08-06T12:01:32;98336.69;;;31.17;45.37
28630;BME280;15817;42.130;24.762;2023-08-06T12:04:00;98348.78;;;31.47;43.28
28630;BME280;15817;42.130;24.762;2023-08-06T12:06:29;98340.16;;;31.58;42.26
28630;BME280;15817;42.130;24.762;2023-08-06T12:08:55;98350.22;;;31.35;42.82
28630;BME280;15817;42.130;24.762;2023-08-06T12:11:21;98355.28;;;31.54;42.12
28630;BME280;15817;42.130;24.762;2023-08-06T12:13:54;98359.53;;;31.18;43.04
28630;BME280;15817;42.130;24.762;2023-08-06T12:16:22;98356.50;;;30.88;44.29
28630;BME280;15817;42.130;24.762;2023-08-06T12:18:49;98344.34;;;30.58;44.11
28630;BME280;15817;42.130;24.762;2023-08-06T12:21:14;98358.03;;;30.50;44.18
28630;BME280;15817;42.130;24.762;2023-08-06T12:23:40;98344.72;;;30.55;44.78
28630;BME280;15817;42.130;24.762;2023-08-06T12:26:06;98351.16;;;31.03;44.18
28630;BME280;15817;42.130;24.762;2023-08-06T12:28:32;98338.63;;;31.09;44.50
28630;BME280;15817;42.130;24.762;2023-08-06T12:30:57;98333.34;;;30.91;43.52
28630;BME280;15817;42.130;24.762;2023-08-06T12:33:23;98335.38;;;30.97;43.55
28630;BME280;15817;42.130;24.762;2023-08-06T12:35:49;98341.84;;;31.20;43.85
28630;BME280;15817;42.130;24.762;2023-08-06T12:38:15;98344.31;;;30.91;44.31
28630;BME280;15817;42.130;24.762;2023-08-06T12:40:40;98343.97;;;30.70;44.40
28630;BME280;15817;42.130;24.762;2023-08-06T12:43:06;98336.63;;;30.46;44.36
28630;BME280;15817;42.130;24.762;2023-08-06T12:45:32;98341.06;;;30.39;43.44
28630;BME280;15817;42.130;24.762;2023-08-06T12:47:58;98330.09;;;30.31;43.04
28630;BME280;15817;42.130;24.762;2023-08-06T12:50:24;98336.63;;;30.46;43.47
28630;BME280;15817;42.130;24.762;2023-08-06T12:52:50;98329.09;;;30.56;42.38
28630;BME280;15817;42.130;24.762;2023-08-06T12:55:16;98346.22;;;30.50;43.33
28630;BME280;15817;42.130;24.762;2023-08-06T12:57:42;98348.28;;;30.40;43.96